Time;durP1;ratioP1;P1;durP2;ratioP2;P2;SDS_P1;SDS_P2;PMS_P1;PMS_P2;Temp;Humidity;BMP_temperature;BMP_pressure;BME280_temperature;BME280_humidity;BME280_pressure;Samples;Min_cycle;Max_cycle;Signal;HPM_P1;HPM_P2
2021/11/27 00:02:27;;;;;;;;;;;;;;;;;;;;;
2021/11/27 00:05:28;;;;;;;;;;;;;;;;;;;;;
2021/11/27 00:09:00;;;;;;;;;;;;;;;;;;;;;
2021/11/27 00:12:17;;;;;;;18.10;4.40;;;;;;;2.59;92.50;90201.59;4881842;29;20047;-94
2021/11/27 00:15:07;;;;;;;10.70;4.85;;;;;;;2.57;91.98;90208.09;4864224;29;20045;-95
2021/11/27 00:18:41;;;;;;;;;;;;;;;;;;;;;
2021/11/27 00:21:29;;;;;;;9.65;4.80;;;;;;;2.48;91.93;90205.47;4881121;29;20513;-94
2021/11/27 00:24:29;;;;;;;9.20;4.18;;;;;;;2.40;92.17;90194.00;4863259;29;20092;-95
2021/11/27 00:27:32;;;;;;;7.38;4.22;;;;;;;2.42;92.69;90201.44;4857990;29;20049;-95
2021/11/27 00:30:29;;;;;;;9.55;4.63;;;;;;;2.29;92.73;90185.69;4866806;29;20037;-96
2021/11/27 00:33:36;;;;;;;;;;;;;;;;;;;;;
2021/11/27 00:36:58;;;;;;;8.15;4.07;;;;;;;2.20;92.40;90174.53;4841093;29;20041;-94
2021/11/27 00:40:22;;;;;;;7.10;3.67;;;;;;;2.16;91.38;90168.44;4858047;29;20068;-95
2021/11/27 00:46:21;;;;;;;9.40;3.97;;;;;;;2.13;91.95;90171.59;4881835;29;20060;-95
2021/11/27 00:49:12;;;;;;;;;;;;;;;;;;;;;
2021/11/27 00:52:26;;;;;;;;;;;;;;;;;;;;;
2021/11/27 00:55:33;;;;;;;13.55;3.78;;;;;;;2.01;91.90;90161.78;4898170;29;20135;-95
2021/11/27 00:58:20;;;;;;;6.47;3.55;;;;;;;1.95;92.22;90154.44;4867898;29;20039;-95
2021/11/27 01:01:34;;;;;;;6.60;3.47;;;;;;;1.90;92.09;90155.31;4871615;29;20078;-95
2021/11/27 01:04:49;;;;;;;6.47;2.95;;;;;;;1.87;91.48;90154.06;4894593;29;20048;-96
2021/11/27 01:07:58;;;;;;;5.13;2.63;;;;;;;1.84;91.54;90151.31;4903844;29;20050;-96
2021/11/27 01:11:12;;;;;;;4.72;2.42;;;;;;;1.82;91.44;90153.41;4886775;29;20521;-94
2021/11/27 01:14:10;;;;;;;4.88;2.58;;;;;;;1.72;91.17;90144.06;4885453;29;20067;-95
2021/11/27 01:17:22;;;;;;;4.65;2.28;;;;;;;1.80;91.08;90160.66;4899680;29;20127;-95
2021/11/27 01:20:41;;;;;;;;;;;;;;;;;;;;;
2021/11/27 01:23:43;;;;;;;;;;;;;;;;;;;;;
2021/11/27 01:26:52;;;;;;;;;;;;;;;;;;;;;
2021/11/27 01:29:34;;;;;;;4.95;2.70;;;;;;;1.83;89.04;90165.25;4889713;29;20051;-94
2021/11/27 01:32:51;;;;;;;10.88;2.60;;;;;;;1.70;88.22;90159.06;4876042;29;20049;-94
2021/11/27 01:35:40;;;;;;;;;;;;;;;;;;;;;
2021/11/27 01:38:52;;;;;;;3.80;2.10;;;;;;;1.72;88.58;90162.13;4883178;29;20046;-94
2021/11/27 01:42:06;;;;;;;;;;;;;;;;;;;;;
2021/11/27 01:44:56;;;;;;;3.70;1.83;;;;;;;1.76;88.24;90154.56;4901827;29;20085;-94
2021/11/27 01:48:47;;;;;;;3.95;1.80;;;;;;;1.76;87.92;90154.56;4897721;29;20451;-95
2021/11/27 01:51:38;;;;;;;;;;;;;;;;;;;;;
2021/11/27 01:54:27;;;;;;;2.88;1.58;;;;;;;1.85;86.65;90176.81;4898590;29;20049;-95
2021/11/27 01:57:42;;;;;;;;;;;;;;;;;;;;;
2021/11/27 02:00:50;;;;;;;3.08;1.58;;;;;;;1.75;86.50;90171.84;4899294;29;20493;-95
2021/11/27 02:03:49;;;;;;;;;;;;;;;;;;;;;
2021/11/27 02:07:08;;;;;;;;;;;;;;;;;;;;;
2021/11/27 02:10:05;;;;;;;3.40;1.83;;;;;;;1.65;87.89;90148.84;4880682;29;20049;-95
2021/11/27 02:12:52;;;;;;;5.47;2.33;;;;;;;1.69;88.02;90156.75;4867006;29;20120;-95
2021/11/27 02:16:16;;;;;;;3.95;1.95;;;;;;;1.68;88.60;90156.00;4865816;29;20040;-95
2021/11/27 02:19:09;;;;;;;3.22;1.27;;;;;;;1.53;88.52;90140.81;4850987;29;20044;-95
2021/11/27 02:22:00;;;;;;;2.03;1.33;;;;;;;1.52;88.18;90152.97;4863820;29;20044;-96
2021/11/27 02:28:34;;;;;;;2.92;1.50;;;;;;;1.43;87.85;90147.72;4879761;29;20430;-95
2021/11/27 02:31:34;;;;;;;;;;;;;;;;;;;;;
2021/11/27 02:34:37;;;;;;;;;;;;;;;;;;;;;
2021/11/27 02:37:32;;;;;;;4.70;1.85;;;;;;;1.24;86.98;90141.91;4881440;29;20118;-93
2021/11/27 02:44:14;;;;;;;;;;;;;;;;;;;;;
2021/11/27 02:47:25;;;;;;;4.38;2.20;;;;;;;0.97;88.42;90138.25;4870966;29;20049;-95
2021/11/27 02:50:12;;;;;;;5.07;2.70;;;;;;;0.93;88.94;90139.88;4867935;29;20036;-95
2021/11/27 02:53:05;;;;;;;6.95;2.65;;;;;;;0.92;89.27;90143.47;4879560;29;20100;-94
2021/11/27 02:56:13;;;;;;;6.13;2.72;;;;;;;0.92;89.66;90138.31;4855576;29;20514;-93
2021/11/27 02:59:03;;;;;;;8.23;4.10;;;;;;;0.90;90.46;90140.44;4869847;29;20112;-95
2021/11/27 03:01:58;;;;;;;;;;;;;;;;;;;;;
2021/11/27 03:08:14;;;;;;;8.90;4.38;;;;;;;0.79;92.52;90134.69;4873162;29;20053;-95
2021/11/27 03:15:05;;;;;;;;;;;;;;;;;;;;;
2021/11/27 03:18:06;;;;;;;;;;;;;;;;;;;;;
2021/11/27 03:21:13;;;;;;;9.02;4.25;;;;;;;0.73;93.08;90137.66;4900454;29;20083;-95
2021/11/27 03:24:36;;;;;;;9.48;4.93;;;;;;;0.88;93.33;90147.69;4886354;29;20041;-94
2021/11/27 03:27:03;;;;;;;10.73;5.15;;;;;;;1.00;93.33;90155.72;4884804;29;20132;-94
2021/11/27 03:30:30;;;;;;;;;;;;;;;;;;;;;
2021/11/27 03:33:20;;;;;;;8.80;4.53;;;;;;;1.11;94.36;90124.63;4884520;29;20044;-95
2021/11/27 03:36:29;;;;;;;9.25;4.72;;;;;;;1.19;94.55;90131.66;4899918;29;20068;-95
2021/11/27 03:39:57;;;;;;;9.48;5.15;;;;;;;1.29;94.52;90146.97;4876471;29;20059;-96
2021/11/27 03:43:23;;;;;;;10.43;5.03;;;;;;;1.30;94.97;90133.00;4884681;29;20041;-94
2021/11/27 03:46:26;;;;;;;;;;;;;;;;;;;;;
2021/11/27 03:52:34;;;;;;;9.10;5.45;;;;;;;1.42;95.17;90135.88;4868737;29;20048;-94
2021/11/27 03:55:41;;;;;;;;;;;;;;;;;;;;;
2021/11/27 03:59:11;;;;;;;;;;;;;;;;;;;;;
2021/11/27 04:02:04;;;;;;;10.80;6.10;;;;;;;1.53;95.74;90125.34;4892252;29;20068;-94
2021/11/27 04:05:00;;;;;;;11.45;6.75;;;;;;;1.54;96.00;90124.31;4883413;29;20052;-95
2021/11/27 04:08:10;;;;;;;12.05;6.47;;;;;;;1.51;96.04;90120.50;4900214;29;20036;-95
2021/11/27 04:10:39;;;;;;;12.55;6.57;;;;;;;1.51;96.41;90117.16;4876710;29;20080;-95
2021/11/27 04:13:53;;;;;;;12.10;6.38;;;;;;;1.55;96.90;90136.16;4885544;29;20100;-94
2021/11/27 04:16:41;;;;;;;13.38;5.82;;;;;;;1.44;96.86;90127.84;4901819;29;20501;-95
2021/11/27 04:19:22;;;;;;;11.60;5.85;;;;;;;1.41;97.05;90128.44;4872486;29;20050;-95
2021/11/27 04:22:34;;;;;;;11.32;6.45;;;;;;;1.49;97.01;90142.44;4889395;29;20044;-94
2021/11/27 04:25:31;;;;;;;;;;;;;;;;;;;;;
2021/11/27 04:28:33;;;;;;;;;;;;;;;;;;;;;
2021/11/27 04:34:54;;;;;;;12.68;7.07;;;;;;;1.57;97.44;90152.09;4906475;29;20069;-95
2021/11/27 04:38:03;;;;;;;12.10;6.72;;;;;;;1.44;97.30;90135.59;4876328;29;20203;-94
2021/11/27 04:40:41;;;;;;;12.32;6.85;;;;;;;1.51;97.12;90148.09;4865634;29;20143;-94
2021/11/27 04:43:53;;;;;;;11.07;5.63;;;;;;;1.51;96.99;90151.44;4900618;29;20044;-94
2021/11/27 04:47:12;;;;;;;13.50;6.65;;;;;;;1.52;97.01;90150.38;4884140;29;20064;-94
2021/11/27 04:49:59;;;;;;;12.45;6.63;;;;;;;1.67;97.04;90172.53;4879641;29;20059;-94
2021/11/27 04:52:55;;;;;;;14.38;7.00;;;;;;;1.68;96.65;90171.47;4891191;29;20672;-95
2021/11/27 04:58:45;;;;;;;12.98;6.63;;;;;;;1.75;96.63;90156.38;4880632;29;20132;-95
2021/11/27 05:01:54;;;;;;;;;;;;;;;;;;;;;
2021/11/27 05:05:22;;;;;;;;;;;;;;;;;;;;;
2021/11/27 05:08:27;;;;;;;13.77;6.95;;;;;;;1.90;96.35;90167.44;4881261;29;20024;-95
2021/11/27 05:11:45;;;;;;;12.88;6.63;;;;;;;1.95;96.36;90167.34;4894396;29;20046;-95
2021/11/27 05:15:00;;;;;;;11.02;6.18;;;;;;;2.02;96.22;90175.44;4885806;29;20128;-96
2021/11/27 05:18:02;;;;;;;;;;;;;;;;;;;;;
2021/11/27 05:21:26;;;;;;;12.63;5.93;;;;;;;1.95;96.06;90162.94;4882875;29;20131;-94
2021/11/27 05:25:16;;;;;;;;;;;;;;;;;;;;;
2021/11/27 05:28:39;;;;;;;12.98;6.88;;;;;;;2.08;95.75;90162.16;4841879;29;20069;-95
2021/11/27 05:35:42;;;;;;;;;;;;;;;;;;;;;
2021/11/27 05:38:38;;;;;;;21.25;10.13;;;;;;;1.86;96.59;90149.19;4841268;29;20062;-94
2021/11/27 05:41:35;;;;;;;21.13;9.48;;;;;;;1.95;97.11;90165.50;4813529;29;20050;-95
2021/11/27 05:48:14;;;;;;;;;;;;;;;;;;;;;
2021/11/27 05:51:46;;;;;;;15.80;8.52;;;;;;;1.81;96.92;90144.16;4886738;29;20146;-96
2021/11/27 05:55:21;;;;;;;18.85;8.02;;;;;;;1.88;96.90;90157.41;4900640;29;20036;-95
2021/11/27 06:01:58;;;;;;;;;;;;;;;;;;;;;
2021/11/27 06:05:21;;;;;;;20.13;7.78;;;;;;;1.64;96.57;90155.84;4899462;29;20052;-94
2021/11/27 06:08:07;;;;;;;15.40;7.13;;;;;;;1.57;96.53;90150.28;4884567;29;20052;-94
2021/11/27 06:11:26;;;;;;;14.10;6.40;;;;;;;1.50;96.33;90149.16;4875765;29;20048;-94
2021/11/27 06:14:35;;;;;;;;;;;;;;;;;;;;;
2021/11/27 06:17:06;;;;;;;11.10;5.45;;;;;;;1.35;96.18;90157.94;4892238;29;20040;-94
2021/11/27 06:23:47;;;;;;;;;;;;;;;;;;;;;
2021/11/27 06:27:06;;;;;;;;;;;;;;;;;;;;;
2021/11/27 06:30:28;;;;;;;11.77;5.32;;;;;;;1.23;95.41;90166.13;4880619;29;20032;-94
2021/11/27 06:33:40;;;;;;;;;;;;;;;;;;;;;
2021/11/27 06:39:59;;;;;;;;;;;;;;;;;;;;;
2021/11/27 06:42:30;;;;;;;10.45;6.13;;;;;;;1.30;94.96;90169.09;4900779;29;20036;-94
2021/11/27 06:45:26;;;;;;;;;;;;;;;;;;;;;
2021/11/27 06:48:35;;;;;;;10.63;5.15;;;;;;;1.33;94.79;90178.84;4912261;29;20050;-93
2021/11/27 06:51:27;;;;;;;8.68;4.75;;;;;;;1.36;94.26;90188.59;4888546;29;20096;-93
2021/11/27 06:54:36;;;;;;;;;;;;;;;;;;;;;
2021/11/27 06:57:39;;;;;;;9.73;4.97;;;;;;;1.52;94.19;90206.34;4914786;29;20043;-95
2021/11/27 07:04:35;;;;;;;12.30;6.68;;;;;;;1.66;96.01;90228.50;4926817;29;20290;-92
2021/11/27 07:10:59;;;;;;;;;;;;;;;;;;;;;
2021/11/27 07:14:06;;;;;;;18.67;6.90;;;;;;;1.67;95.92;90211.22;4904754;29;20063;-93
2021/11/27 07:16:51;;;;;;;13.30;7.20;;;;;;;1.70;96.47;90218.38;4895123;29;20039;-94
2021/11/27 07:19:47;;;;;;;;;;;;;;;;;;;;;
2021/11/27 07:25:53;;;;;;;16.63;7.97;;;;;;;2.00;95.69;90213.69;4918924;29;20044;-94
2021/11/27 07:29:17;;;;;;;15.75;7.80;;;;;;;2.15;95.63;90212.63;4898763;29;20054;-94
2021/11/27 07:35:50;;;;;;;;;;;;;;;;;;;;;
2021/11/27 07:38:50;;;;;;;;;;;;;;;;;;;;;
2021/11/27 08:13:24;;;;;;;16.75;8.23;;;;;;;9.01;63.96;90249.19;5124542;27;20444;-81
2021/11/27 08:15:50;;;;;;;14.95;7.78;;;;;;;10.33;59.53;90249.94;5091381;28;20036;-80
2021/11/27 08:18:15;;;;;;;14.50;8.07;;;;;;;12.01;55.00;90250.00;5106893;28;20374;-79
2021/11/27 08:20:41;;;;;;;15.63;7.35;;;;;;;13.29;50.44;90244.41;5066250;28;20036;-79
2021/11/27 08:23:08;;;;;;;15.88;7.28;;;;;;;15.31;46.84;90243.22;5048226;28;20048;-76
2021/11/27 08:25:34;;;;;;;14.18;7.43;;;;;;;17.18;43.10;90239.03;5048194;28;20116;-77
2021/11/27 08:36:35;;;;;;;15.75;8.02;;;;;;;19.19;35.41;90253.13;4986294;28;20123;-77
2021/11/27 08:39:00;;;;;;;11.90;6.50;;;;;;;18.76;36.30;90251.56;4967932;28;20051;-77
2021/11/27 08:41:26;;;;;;;14.10;7.20;;;;;;;17.61;38.69;90256.69;4991266;28;20038;-77
2021/11/27 08:43:52;;;;;;;14.65;7.68;;;;;;;16.75;38.48;90259.41;4987973;28;20030;-79
2021/11/27 08:46:17;;;;;;;13.32;7.00;;;;;;;12.71;47.52;90267.22;4989981;28;20070;-79
2021/11/27 08:48:43;;;;;;;14.18;7.32;;;;;;;9.11;59.46;90272.19;4971178;28;20039;-79
2021/11/27 08:51:11;;;;;;;15.98;8.05;;;;;;;9.09;60.44;90275.13;4987073;28;20027;-79
2021/11/27 08:53:38;;;;;;;12.27;7.25;;;;;;;9.07;60.04;90276.56;5000670;28;20041;-78
2021/11/27 08:56:06;;;;;;;16.60;7.43;;;;;;;9.18;60.69;90273.16;4993790;28;20046;-78
2021/11/27 08:58:36;;;;;;;13.95;7.07;;;;;;;9.29;60.20;90277.91;4992824;28;20669;-78
2021/11/27 09:01:17;;;;;;;20.10;8.77;;;;;;;9.66;58.90;90283.78;4985445;28;20042;-77
2021/11/27 09:04:04;;;;;;;17.73;8.45;;;;;;;10.66;55.35;90274.25;4976089;28;20042;-77
2021/11/27 09:06:30;;;;;;;16.60;7.30;;;;;;;11.50;53.58;90278.22;4973229;28;20053;-77
2021/11/27 09:08:56;;;;;;;12.13;5.90;;;;;;;10.44;57.38;90281.59;4997640;28;20030;-77
2021/11/27 09:11:23;;;;;;;12.70;6.72;;;;;;;8.86;65.80;90300.94;4993523;28;20130;-77
2021/11/27 09:13:50;;;;;;;14.52;6.13;;;;;;;8.22;67.71;90304.94;4985905;28;20033;-77
2021/11/27 09:16:17;;;;;;;16.65;8.63;;;;;;;7.13;71.37;90300.91;4987911;28;20530;-77
2021/11/27 09:18:43;;;;;;;15.40;8.20;;;;;;;6.82;74.14;90310.59;4970703;28;20042;-78
2021/11/27 09:21:09;;;;;;;23.67;10.30;;;;;;;6.47;75.02;90317.81;4987839;28;20042;-77
2021/11/27 09:23:35;;;;;;;17.40;8.25;;;;;;;5.70;78.63;90314.38;4979235;28;20038;-77
2021/11/27 09:26:00;;;;;;;16.95;7.97;;;;;;;5.06;82.98;90320.22;4972919;28;20049;-78
2021/11/27 09:28:26;;;;;;;19.98;8.27;;;;;;;4.92;84.43;90325.56;4973577;28;20035;-77
2021/11/27 09:30:52;;;;;;;20.30;9.30;;;;;;;5.13;83.14;90321.28;4975077;28;20117;-77
2021/11/27 09:33:18;;;;;;;16.67;7.95;;;;;;;4.96;83.79;90326.47;4975252;28;20031;-77
2021/11/27 09:36:07;;;;;;;16.05;7.60;;;;;;;4.69;85.17;90325.69;4973022;28;20062;-77
2021/11/27 09:38:31;;;;;;;14.13;7.30;;;;;;;4.17;88.72;90341.06;4953958;28;20466;-76
2021/11/27 09:41:05;;;;;;;15.38;7.97;;;;;;;4.20;89.42;90331.94;4954337;29;20061;-77
2021/11/27 09:43:31;;;;;;;14.82;8.02;;;;;;;4.15;88.21;90332.84;4962419;28;20039;-77
2021/11/27 09:45:57;;;;;;;15.02;8.02;;;;;;;4.37;87.09;90337.19;4961948;28;20514;-77
2021/11/27 09:48:23;;;;;;;20.30;9.25;;;;;;;4.35;86.08;90334.88;4973099;28;20049;-77
2021/11/27 09:50:49;;;;;;;18.60;9.02;;;;;;;4.16;87.73;90336.94;4974524;28;20054;-77
2021/11/27 09:53:15;;;;;;;17.42;9.48;;;;;;;4.32;87.09;90338.09;4973609;28;20043;-78
2021/11/27 09:55:41;;;;;;;16.05;8.10;;;;;;;4.46;85.89;90335.38;4975903;28;20035;-78
2021/11/27 09:58:11;;;;;;;18.92;8.10;;;;;;;4.47;86.72;90339.50;4991759;28;20187;-79
2021/11/27 10:00:38;;;;;;;15.88;7.88;;;;;;;4.40;87.34;90336.56;4957336;28;20035;-78
2021/11/27 10:03:08;;;;;;;18.52;8.45;;;;;;;4.74;86.58;90341.06;4973125;28;20038;-79
2021/11/27 10:05:34;;;;;;;11.27;5.70;;;;;;;4.68;85.46;90326.72;4973550;28;20035;-79
2021/11/27 10:08:00;;;;;;;17.17;8.48;;;;;;;4.66;86.26;90326.28;4974793;28;20100;-78
2021/11/27 10:10:26;;;;;;;12.68;6.97;;;;;;;5.23;82.42;90325.41;4975286;28;20058;-79
2021/11/27 10:12:51;;;;;;;17.58;7.15;;;;;;;6.02;80.24;90324.25;4963270;28;20035;-77
2021/11/27 10:15:17;;;;;;;18.85;8.02;;;;;;;6.81;74.26;90309.06;4973642;28;20488;-76
2021/11/27 10:17:43;;;;;;;16.08;6.65;;;;;;;7.11;72.45;90316.06;4956524;28;20497;-76
2021/11/27 10:20:10;;;;;;;7.47;4.78;;;;;;;6.60;75.97;90311.63;4972898;28;20046;-77
2021/11/27 10:22:38;;;;;;;15.60;6.00;;;;;;;5.84;80.16;90309.75;4974385;28;20037;-78
2021/11/27 10:25:29;;;;;;;9.48;5.45;;;;;;;5.37;83.16;90314.88;4978610;28;20037;-77
2021/11/27 10:28:08;;;;;;;19.88;8.60;;;;;;;5.96;80.89;90299.50;4966298;28;20070;-77
2021/11/27 10:30:52;;;;;;;12.57;6.45;;;;;;;5.79;80.22;90313.28;4971482;28;20508;-77
2021/11/27 10:33:20;;;;;;;16.58;8.23;;;;;;;5.43;79.93;90309.22;4988990;28;20031;-77
2021/11/27 10:35:55;;;;;;;16.13;7.68;;;;;;;5.58;80.98;90305.41;4987875;28;20043;-78
2021/11/27 10:38:32;;;;;;;17.55;9.70;;;;;;;5.34;81.44;90315.50;4990103;28;20696;-77
2021/11/27 10:40:59;;;;;;;22.00;9.02;;;;;;;5.48;79.93;90331.66;4990849;28;20467;-78
2021/11/27 10:43:24;;;;;;;16.00;7.60;;;;;;;5.81;79.49;90331.91;4973644;28;20488;-77
2021/11/27 10:45:50;;;;;;;21.58;9.68;;;;;;;5.78;77.80;90324.72;4974021;28;20126;-77
2021/11/27 10:48:24;;;;;;;16.10;7.60;;;;;;;5.21;79.29;90312.00;4993996;28;20062;-78
2021/11/27 10:50:52;;;;;;;19.00;7.45;;;;;;;5.06;80.25;90295.03;4975055;28;20038;-76
2021/11/27 10:53:22;;;;;;;11.13;5.82;;;;;;;4.75;81.15;90300.38;4973953;28;20022;-77
2021/11/27 10:55:49;;;;;;;15.40;7.82;;;;;;;4.78;81.50;90300.53;4973072;28;20440;-76
2021/11/27 10:58:15;;;;;;;19.98;9.77;;;;;;;4.99;80.83;90305.13;4973616;28;20027;-77
2021/11/27 11:00:49;;;;;;;20.10;10.85;;;;;;;4.90;82.66;90299.91;4980879;28;20069;-77
2021/11/27 11:03:27;;;;;;;9.70;4.90;;;;;;;4.76;82.45;90310.44;4976824;28;20033;-78
2021/11/27 11:05:55;;;;;;;18.58;8.95;;;;;;;4.77;83.06;90311.97;4992891;28;20039;-77
2021/11/27 11:08:41;;;;;;;20.83;9.65;;;;;;;4.95;82.02;90314.56;4976371;28;20033;-78
2021/11/27 11:11:22;;;;;;;22.63;5.80;;;;;;;5.07;80.77;90306.19;4978294;28;20082;-78
2021/11/27 11:13:57;;;;;;;16.67;7.85;;;;;;;5.62;79.41;90306.28;4978406;28;20043;-79
2021/11/27 11:16:34;;;;;;;19.88;8.15;;;;;;;5.94;77.85;90295.69;4989205;28;20031;-77
2021/11/27 11:19:20;;;;;;;15.77;7.45;;;;;;;5.85;77.00;90293.09;4972655;28;20042;-78
2021/11/27 11:22:08;;;;;;;15.57;7.22;;;;;;;5.59;79.23;90285.41;4968622;28;20026;-76
2021/11/27 11:24:40;;;;;;;12.18;6.00;;;;;;;5.97;76.56;90295.84;4958296;28;20658;-77
2021/11/27 11:27:09;;;;;;;14.07;6.47;;;;;;;6.26;74.32;90296.97;4972708;28;20030;-77
2021/11/27 11:29:49;;;;;;;13.18;6.30;;;;;;;6.36;72.92;90291.41;4971892;28;20289;-77
2021/11/27 11:32:22;;;;;;;15.07;7.05;;;;;;;6.09;74.92;90287.41;4988070;28;20378;-77
2021/11/27 11:34:53;;;;;;;16.23;7.20;;;;;;;5.75;77.02;90293.44;4988722;28;20055;-78
2021/11/27 11:37:18;;;;;;;15.40;7.45;;;;;;;6.37;77.23;90292.94;4987483;28;20400;-76
2021/11/27 11:39:46;;;;;;;13.27;7.40;;;;;;;6.62;77.25;90280.88;4976832;28;20030;-78
2021/11/27 11:42:12;;;;;;;19.15;8.57;;;;;;;6.46;76.70;90285.88;4988175;28;20061;-76
2021/11/27 11:44:41;;;;;;;10.63;5.90;;;;;;;6.38;74.62;90285.91;4972774;28;20118;-77
2021/11/27 11:47:08;;;;;;;10.35;5.82;;;;;;;6.45;78.12;90294.72;4972072;28;20560;-76
2021/11/27 11:49:39;;;;;;;15.50;7.13;;;;;;;6.64;76.61;90283.16;4975329;28;20022;-77
2021/11/27 11:52:42;;;;;;;12.73;5.72;;;;;;;6.01;75.08;90294.16;4987984;28;20077;-76
2021/11/27 11:55:17;;;;;;;9.75;5.10;;;;;;;5.86;73.23;90286.09;4971481;28;20035;-78
2021/11/27 11:57:58;;;;;;;13.38;5.68;;;;;;;5.75;72.42;90283.06;4972736;28;20139;-78
2021/11/27 12:00:25;;;;;;;9.02;4.65;;;;;;;5.79;71.86;90273.59;4990154;28;20031;-78
2021/11/27 12:02:52;;;;;;;17.83;6.53;;;;;;;6.14;73.55;90274.25;4989075;28;20023;-77
2021/11/27 12:05:21;;;;;;;16.25;5.95;;;;;;;5.65;73.24;90276.34;4971274;28;20054;-76
2021/11/27 12:07:50;;;;;;;13.43;6.50;;;;;;;6.42;71.96;90277.19;4971804;28;20400;-77
2021/11/27 12:10:22;;;;;;;11.15;5.60;;;;;;;6.57;72.13;90280.28;4979543;28;20100;-77
2021/11/27 12:13:06;;;;;;;10.98;6.03;;;;;;;6.55;73.88;90279.84;4970520;28;20030;-77
2021/11/27 12:15:40;;;;;;;13.38;6.85;;;;;;;7.01;72.73;90273.00;4969431;28;20492;-77
2021/11/27 12:18:18;;;;;;;12.10;5.80;;;;;;;7.18;68.88;90279.88;4972351;28;20146;-77
2021/11/27 12:20:49;;;;;;;9.48;4.57;;;;;;;7.30;67.68;90279.94;4986987;28;20443;-77
2021/11/27 12:23:32;;;;;;;9.27;4.43;;;;;;;6.92;69.33;90280.09;4971787;28;20450;-77
2021/11/27 12:26:24;;;;;;;11.32;5.28;;;;;;;7.16;69.28;90279.44;4972143;28;20488;-77
2021/11/27 12:28:50;;;;;;;11.43;5.20;;;;;;;6.14;71.67;90278.69;4968229;28;20056;-77
2021/11/27 12:31:19;;;;;;;14.10;6.82;;;;;;;6.07;72.39;90289.56;4971968;28;20089;-77
2021/11/27 12:33:58;;;;;;;12.48;6.10;;;;;;;5.83;73.28;90284.84;4972090;28;20463;-77
2021/11/27 12:39:15;;;;;;;9.88;4.22;;;;;;;5.65;74.45;90294.53;4973009;28;20037;-78
2021/11/27 12:41:46;;;;;;;15.20;6.97;;;;;;;5.78;73.89;90300.59;4990225;28;20034;-78
2021/11/27 12:44:21;;;;;;;14.10;6.00;;;;;;;5.87;72.24;90295.41;4975304;28;20038;-78
2021/11/27 12:46:57;;;;;;;12.25;5.93;;;;;;;5.68;72.58;90287.97;4975380;28;20035;-78
2021/11/27 12:49:46;;;;;;;10.23;5.18;;;;;;;5.25;76.26;90283.63;4973676;28;20415;-77
2021/11/27 12:52:18;;;;;;;14.13;6.15;;;;;;;5.41;74.76;90280.22;4969234;28;20074;-78
2021/11/27 12:54:49;;;;;;;10.10;5.18;;;;;;;5.43;74.63;90275.50;4974788;28;20042;-78
2021/11/27 12:57:18;;;;;;;13.70;6.72;;;;;;;5.22;74.32;90275.38;4973853;28;20641;-78
2021/11/27 12:59:45;;;;;;;13.07;5.10;;;;;;;5.61;74.15;90273.63;4973943;28;20030;-78
2021/11/27 13:02:18;;;;;;;6.60;3.90;;;;;;;5.30;75.50;90278.25;4974501;28;20130;-78
2021/11/27 13:04:45;;;;;;;7.15;3.85;;;;;;;5.13;71.33;90279.78;4972382;28;20035;-78
2021/11/27 13:07:11;;;;;;;8.77;4.57;;;;;;;4.99;71.96;90277.34;4978124;28;20042;-78
2021/11/27 13:09:38;;;;;;;11.57;5.32;;;;;;;5.49;73.23;90281.28;4978523;28;20054;-77
2021/11/27 13:12:14;;;;;;;12.32;5.93;;;;;;;5.68;71.29;90267.97;4977796;28;20026;-77
2021/11/27 13:14:40;;;;;;;9.52;4.93;;;;;;;5.70;72.86;90270.25;4979567;28;20035;-78
2021/11/27 13:17:14;;;;;;;13.70;6.07;;;;;;;5.58;73.15;90278.66;4979889;28;20052;-78
2021/11/27 13:19:43;;;;;;;11.80;5.65;;;;;;;5.80;72.75;90275.09;4979248;28;20130;-78
2021/11/27 13:22:13;;;;;;;13.05;5.60;;;;;;;5.79;72.71;90273.59;4978647;28;20516;-78
2021/11/27 13:24:55;;;;;;;11.35;5.93;;;;;;;5.75;71.46;90288.25;4987182;28;20058;-79
2021/11/27 13:27:26;;;;;;;13.90;5.82;;;;;;;5.86;71.95;90281.66;4988803;28;20488;-79
2021/11/27 13:30:03;;;;;;;13.93;6.18;;;;;;;5.89;71.58;90286.22;4985505;28;20030;-79
2021/11/27 13:32:40;;;;;;;12.13;5.72;;;;;;;5.60;73.96;90287.66;4984158;28;20046;-79
2021/11/27 13:35:09;;;;;;;12.75;4.60;;;;;;;5.76;73.24;90290.53;4984432;28;20046;-79
2021/11/27 13:37:55;;;;;;;17.33;7.03;;;;;;;5.25;75.01;90291.41;4984732;28;20039;-79
2021/11/27 13:40:28;;;;;;;11.00;4.35;;;;;;;5.07;75.75;90286.22;4982656;28;20027;-78
2021/11/27 13:43:02;;;;;;;13.10;7.00;;;;;;;5.03;76.03;90285.28;4959626;28;20031;-78
2021/11/27 13:45:28;;;;;;;11.73;5.85;;;;;;;5.12;75.02;90287.88;4980131;28;20038;-78
2021/11/27 13:47:59;;;;;;;12.23;6.57;;;;;;;5.13;75.04;90299.78;4994412;28;20041;-79
2021/11/27 13:50:24;;;;;;;14.80;6.20;;;;;;;5.07;76.53;90296.59;4981371;28;20118;-78
2021/11/27 13:52:52;;;;;;;12.63;6.35;;;;;;;5.19;75.45;90299.31;4975742;28;20070;-79
2021/11/27 13:55:19;;;;;;;12.60;6.60;;;;;;;5.31;75.18;90300.53;4975411;28;20480;-78
2021/11/27 13:57:51;;;;;;;14.43;6.65;;;;;;;5.30;76.37;90299.78;4978890;28;20042;-78
2021/11/27 14:00:28;;;;;;;16.27;6.70;;;;;;;5.37;75.06;90301.91;4979820;28;20026;-78
2021/11/27 14:03:08;;;;;;;15.77;6.15;;;;;;;5.28;73.89;90299.31;4980590;28;20033;-78
2021/11/27 14:05:37;;;;;;;12.77;6.13;;;;;;;5.37;74.36;90304.50;4978879;28;20041;-78
2021/11/27 14:08:16;;;;;;;13.88;6.80;;;;;;;5.19;75.13;90296.72;4995141;28;20031;-78
2021/11/27 14:11:04;;;;;;;17.38;7.20;;;;;;;5.49;74.65;90307.22;4992908;28;20035;-78
2021/11/27 14:13:34;;;;;;;13.68;6.63;;;;;;;5.64;74.41;90311.19;4981163;28;20038;-78
2021/11/27 14:16:01;;;;;;;11.27;6.13;;;;;;;5.76;74.06;90310.53;4980171;28;20035;-78
2021/11/27 14:18:29;;;;;;;11.60;5.97;;;;;;;6.00;72.91;90310.81;4980727;28;20103;-79
2021/11/27 14:20:58;;;;;;;11.32;6.25;;;;;;;6.09;71.31;90313.38;4979914;28;20035;-78
2021/11/27 14:23:28;;;;;;;11.65;5.93;;;;;;;6.12;70.03;90314.59;4978471;28;20030;-78
2021/11/27 14:26:16;;;;;;;13.20;5.93;;;;;;;6.18;69.20;90318.56;4980838;28;20031;-78
2021/11/27 14:28:45;;;;;;;11.68;5.72;;;;;;;6.11;67.75;90315.69;4980355;28;20039;-79
2021/11/27 14:31:20;;;;;;;11.98;5.95;;;;;;;5.90;66.50;90315.53;4973410;28;20027;-79
2021/11/27 14:33:59;;;;;;;15.10;6.68;;;;;;;5.78;67.66;90311.75;4997336;28;20110;-79
2021/11/27 14:36:30;;;;;;;11.27;5.82;;;;;;;5.78;68.05;90323.97;4991298;28;20097;-79
2021/11/27 14:39:14;;;;;;;12.05;6.00;;;;;;;5.87;67.25;90321.38;4979415;28;20041;-79
2021/11/27 14:41:41;;;;;;;13.02;6.45;;;;;;;5.70;67.56;90322.19;4974795;28;20039;-78
2021/11/27 14:44:12;;;;;;;13.32;5.93;;;;;;;5.61;68.33;90320.34;4974116;28;20039;-78
2021/11/27 14:46:49;;;;;;;12.35;6.40;;;;;;;5.51;69.90;90327.69;4974462;28;20185;-78
2021/11/27 14:49:36;;;;;;;10.88;4.93;;;;;;;5.14;70.58;90332.44;4973332;28;20545;-78
2021/11/27 14:52:10;;;;;;;11.13;5.85;;;;;;;5.24;71.32;90323.59;4955793;29;20067;-77
2021/11/27 14:54:41;;;;;;;13.85;6.30;;;;;;;5.22;73.15;90329.84;4975336;28;20069;-78
2021/11/27 14:57:12;;;;;;;13.75;6.65;;;;;;;5.23;73.38;90325.41;4988382;28;20137;-77
2021/11/27 15:00:04;;;;;;;13.32;6.03;;;;;;;5.21;73.28;90320.53;4972603;28;20535;-77
2021/11/27 15:02:33;;;;;;;13.95;6.57;;;;;;;5.17;73.72;90329.22;4973678;28;20035;-77
2021/11/27 15:05:00;;;;;;;13.68;5.47;;;;;;;5.14;73.51;90332.44;4971984;28;20039;-77
2021/11/27 15:07:28;;;;;;;9.50;5.15;;;;;;;5.10;73.62;90341.88;4972626;28;20041;-77
2021/11/27 15:09:55;;;;;;;11.13;5.50;;;;;;;5.06;72.84;90333.19;4972340;28;20097;-77
2021/11/27 15:12:23;;;;;;;18.95;7.75;;;;;;;5.00;73.98;90335.94;4971349;28;20042;-77
2021/11/27 15:14:49;;;;;;;12.90;6.25;;;;;;;4.93;73.94;90337.44;4987207;28;20515;-78
2021/11/27 15:17:15;;;;;;;11.43;5.85;;;;;;;4.86;74.51;90331.94;4972445;28;20439;-78
2021/11/27 15:19:42;;;;;;;10.13;5.28;;;;;;;4.83;74.79;90332.56;4954849;28;20041;-79
2021/11/27 15:22:11;;;;;;;12.40;5.88;;;;;;;4.77;74.37;90337.13;4971672;28;20039;-77
2021/11/27 15:24:38;;;;;;;10.63;5.57;;;;;;;4.71;74.95;90336.50;4973145;28;20492;-78
2021/11/27 15:27:04;;;;;;;12.38;5.43;;;;;;;4.66;75.66;90347.03;4974120;28;20034;-77
2021/11/27 15:29:30;;;;;;;15.07;5.45;;;;;;;4.60;75.93;90340.44;4972683;28;20408;-78
2021/11/27 15:31:55;;;;;;;9.90;5.13;;;;;;;4.57;76.50;90354.78;4974043;28;20053;-77
2021/11/27 15:34:23;;;;;;;11.30;5.30;;;;;;;4.54;76.80;90352.00;4973582;28;20061;-77
2021/11/27 15:36:50;;;;;;;14.60;6.68;;;;;;;4.50;77.31;90345.91;4988662;28;20035;-78
2021/11/27 15:39:16;;;;;;;13.73;6.07;;;;;;;4.46;77.45;90355.31;4973423;28;20074;-77
2021/11/27 15:41:42;;;;;;;10.82;5.55;;;;;;;4.40;77.26;90356.53;4972645;28;20169;-77
2021/11/27 15:44:09;;;;;;;10.27;5.65;;;;;;;4.35;77.07;90344.50;4973926;28;20061;-77
2021/11/27 15:46:36;;;;;;;14.95;5.45;;;;;;;4.30;77.23;90344.59;4957344;28;20045;-78
2021/11/27 15:49:03;;;;;;;12.23;5.63;;;;;;;4.22;77.33;90347.94;4973847;28;20042;-78